createdAt,value
2018-10-12T00:00:20.096Z,72.40
2018-10-12T00:02:55.281Z,72.60
2018-10-12T00:05:29.677Z,72.90
2018-10-12T00:08:04.335Z,72.90
2018-10-12T00:10:38.727Z,73.40
2018-10-12T00:13:13.740Z,74.00
2018-10-12T00:15:48.607Z,74.10
2018-10-12T00:18:22.947Z,74.30
2018-10-12T00:20:58.027Z,74.60
2018-10-12T00:23:33.155Z,74.80
2018-10-12T00:26:08.343Z,74.40
2018-10-12T00:28:44.000Z,73.10
2018-10-12T00:31:18.904Z,73.00
2018-10-12T00:33:54.259Z,72.70
2018-10-12T00:36:28.713Z,72.20
2018-10-12T00:39:04.613Z,72.00
2018-10-12T00:41:38.943Z,72.50
2018-10-12T00:44:13.935Z,72.20
2018-10-12T00:46:48.563Z,72.30
2018-10-12T00:49:22.877Z,71.40
2018-10-12T00:51:57.687Z,71.00
2018-10-12T00:54:33.815Z,70.90
2018-10-12T00:58:33.905Z,71.40
2018-10-12T01:01:08.740Z,71.30
2018-10-12T01:03:43.056Z,72.20
2018-10-12T01:06:17.861Z,71.70
2018-10-12T01:08:52.290Z,71.60
2018-10-12T01:11:26.912Z,71.10
2018-10-12T01:14:01.912Z,71.50
2018-10-12T01:16:36.647Z,71.70
2018-10-12T01:19:12.028Z,72.20
2018-10-12T01:21:47.464Z,72.80
2018-10-12T01:24:21.843Z,73.30
2018-10-12T01:26:56.248Z,74.00
2018-10-12T01:29:31.744Z,73.40
2018-10-12T01:32:06.671Z,73.20
2018-10-12T01:34:41.934Z,73.40
2018-10-12T01:37:16.644Z,73.60
2018-10-12T01:39:51.940Z,74.00
2018-10-12T01:42:26.441Z,73.90
2018-10-12T01:45:00.771Z,74.10
2018-10-12T01:47:35.081Z,73.90
2018-10-12T01:50:09.645Z,73.00
2018-10-12T01:52:44.888Z,72.10
2018-10-12T01:55:20.284Z,71.80
2018-10-12T01:57:55.559Z,71.90
2018-10-12T02:00:29.964Z,72.10
2018-10-12T02:03:04.373Z,71.80
2018-10-12T02:05:38.644Z,72.10
2018-10-12T02:08:12.990Z,71.90
2018-10-12T02:10:47.344Z,72.20
2018-10-12T02:13:22.254Z,72.50
2018-10-12T02:15:57.235Z,72.60
2018-10-12T02:18:32.529Z,72.10
2018-10-12T02:21:07.940Z,72.30
2018-10-12T02:23:42.295Z,72.30
2018-10-12T02:26:16.664Z,71.80
2018-10-12T02:28:52.037Z,72.40
2018-10-12T02:31:27.280Z,72.60
2018-10-12T02:34:02.455Z,72.50
2018-10-12T02:36:36.940Z,73.00
2018-10-12T02:39:13.808Z,73.20
2018-10-12T02:41:48.299Z,73.20
2018-10-12T02:44:22.651Z,73.40
2018-10-12T02:46:57.151Z,73.80
2018-10-12T02:49:31.655Z,72.70
2018-10-12T02:52:06.112Z,72.60
2018-10-12T02:54:41.560Z,71.90
2018-10-12T02:57:16.848Z,70.20
2018-10-12T02:59:51.439Z,70.70
2018-10-12T03:02:25.847Z,71.00
2018-10-12T03:05:00.736Z,71.30
2018-10-12T03:07:35.063Z,71.20
2018-10-12T03:10:09.447Z,70.70
2018-10-12T03:12:44.472Z,70.60
2018-10-12T03:15:19.490Z,70.40
2018-10-12T03:24:52.525Z,70.40
2018-10-12T03:27:27.086Z,71.50
2018-10-12T03:30:02.583Z,71.30
2018-10-12T03:32:37.580Z,71.00
2018-10-12T03:35:12.535Z,70.60
2018-10-12T03:37:52.765Z,70.50
2018-10-12T03:40:27.348Z,70.40
2018-10-12T03:43:02.277Z,70.40
2018-10-12T03:45:36.688Z,70.60
2018-10-12T03:48:11.262Z,70.80
2018-10-12T03:50:45.579Z,71.10
2018-10-12T03:53:21.016Z,71.10
2018-10-12T03:55:56.085Z,71.30
2018-10-12T03:58:30.791Z,71.90
2018-10-12T04:01:05.224Z,72.30
2018-10-12T04:03:39.775Z,72.30
2018-10-12T04:06:14.291Z,72.30
2018-10-12T04:08:48.570Z,72.30
2018-10-12T04:14:18.658Z,72.30
2018-10-12T04:16:53.021Z,72.60
2018-10-12T04:19:28.089Z,72.80
2018-10-12T04:22:03.301Z,72.80
2018-10-12T04:24:37.757Z,72.80
2018-10-12T04:27:12.267Z,73.10
2018-10-12T04:29:47.637Z,73.20
2018-10-12T04:32:22.705Z,73.60
2018-10-12T04:34:57.973Z,73.90
2018-10-12T04:37:32.279Z,74.10
2018-10-12T04:40:15.971Z,74.20
2018-10-12T04:42:50.268Z,74.80
2018-10-12T04:45:24.696Z,75.50
2018-10-12T04:47:59.255Z,75.50
2018-10-12T04:50:34.528Z,75.30
2018-10-12T04:53:09.374Z,75.30
2018-10-12T04:55:45.012Z,75.50
2018-10-12T04:58:19.384Z,75.80
2018-10-12T05:01:01.044Z,76.30
2018-10-12T05:03:35.896Z,76.70
2018-10-12T05:06:10.354Z,77.10
2018-10-12T05:08:44.803Z,77.30
2018-10-12T05:11:19.876Z,77.60
2018-10-12T05:13:54.979Z,77.70
2018-10-12T05:16:29.289Z,78.00
2018-10-12T05:19:03.656Z,78.70
2018-10-12T05:28:41.097Z,79.40
2018-10-12T05:31:16.404Z,82.20
2018-10-12T05:33:51.940Z,82.50
2018-10-12T05:36:26.233Z,83.10
2018-10-12T05:39:01.517Z,83.30
2018-10-12T05:41:36.571Z,82.90
2018-10-12T05:44:11.098Z,82.70
2018-10-12T05:46:46.711Z,82.30
2018-10-12T05:49:33.289Z,82.40
2018-10-12T05:52:07.839Z,82.10
2018-10-12T05:54:43.003Z,82.10
2018-10-12T05:57:18.496Z,81.70
2018-10-12T05:59:52.976Z,82.10
2018-10-12T06:02:28.504Z,82.20
2018-10-12T06:05:02.877Z,82.10
2018-10-12T06:07:38.170Z,82.00
2018-10-12T06:10:12.722Z,81.90
2018-10-12T06:12:47.878Z,82.00
2018-10-12T06:15:23.192Z,82.00
2018-10-12T06:17:57.931Z,83.10
2018-10-12T06:20:33.547Z,82.60
2018-10-12T06:23:07.987Z,82.40
2018-10-12T06:25:42.428Z,81.90
2018-10-12T06:28:17.416Z,81.70
2018-10-12T06:30:52.455Z,81.30
2018-10-12T06:33:27.420Z,80.70
2018-10-12T06:36:02.880Z,80.40
2018-10-12T06:38:37.720Z,80.20
2018-10-12T06:41:12.709Z,79.40
2018-10-12T06:43:47.180Z,79.00
2018-10-12T06:46:22.730Z,78.20
2018-10-12T06:48:57.172Z,78.10
2018-10-12T06:51:31.595Z,77.80
2018-10-12T06:54:07.052Z,77.30
2018-10-12T06:56:43.204Z,77.20
2018-10-12T06:59:17.660Z,76.50
2018-10-12T07:01:52.526Z,76.00
2018-10-12T07:04:26.891Z,75.70
2018-10-12T07:07:01.857Z,74.50
2018-10-12T07:09:36.235Z,74.80
2018-10-12T07:12:11.710Z,73.70
2018-10-12T07:14:46.903Z,72.90
2018-10-12T07:17:21.241Z,73.70
2018-10-12T07:19:56.064Z,74.10
2018-10-12T07:22:31.177Z,73.40
2018-10-12T07:25:05.814Z,72.60
2018-10-12T07:27:40.518Z,71.30
2018-10-12T07:30:16.608Z,70.70
2018-10-12T07:32:51.689Z,70.80
2018-10-12T07:35:26.823Z,70.50
2018-10-12T07:38:02.260Z,72.20
2018-10-12T07:40:37.206Z,71.50
2018-10-12T07:43:12.062Z,70.20
2018-10-12T07:45:47.002Z,68.90
2018-10-12T07:48:22.100Z,69.20
2018-10-12T07:50:57.489Z,68.70
2018-10-12T07:53:32.623Z,67.50
2018-10-12T07:56:08.088Z,67.00
2018-10-12T07:58:42.523Z,66.90
2018-10-12T08:01:17.048Z,66.40
2018-10-12T08:03:52.332Z,66.60
2018-10-12T08:06:26.940Z,66.20
2018-10-12T08:09:01.185Z,64.80
2018-10-12T08:11:36.088Z,64.20
2018-10-12T08:14:11.632Z,63.80
2018-10-12T08:16:46.730Z,62.70
2018-10-12T08:19:21.036Z,61.90
2018-10-12T08:21:56.237Z,60.80
2018-10-12T08:24:30.683Z,60.00
2018-10-12T08:27:05.739Z,59.80
2018-10-12T08:29:49.504Z,60.20
2018-10-12T08:32:24.757Z,60.30
2018-10-12T08:35:07.065Z,59.10
2018-10-12T08:37:41.575Z,58.80
2018-10-12T08:40:16.489Z,58.30
2018-10-12T08:42:51.641Z,57.90
2018-10-12T08:45:26.305Z,58.20
2018-10-12T08:48:01.537Z,58.00
2018-10-12T08:50:36.737Z,57.70
2018-10-12T08:55:33.875Z,58.00
2018-10-12T08:58:08.214Z,59.10
2018-10-12T09:00:44.168Z,59.50
2018-10-12T09:03:18.742Z,58.50
2018-10-12T09:05:53.265Z,57.70
2018-10-12T09:08:27.769Z,57.60
2018-10-12T09:11:02.266Z,57.30
2018-10-12T09:13:40.245Z,57.00
2018-10-12T09:16:14.743Z,56.70
2018-10-12T09:18:49.146Z,56.90
2018-10-12T09:21:24.235Z,57.20
2018-10-12T09:23:58.747Z,57.80
2018-10-12T09:26:33.089Z,58.30
2018-10-12T09:29:08.071Z,59.00
2018-10-12T09:31:43.148Z,58.50
2018-10-12T09:34:18.479Z,58.70
2018-10-12T09:36:53.065Z,58.00
2018-10-12T09:39:28.336Z,58.70
2018-10-12T09:42:03.715Z,59.00
2018-10-12T09:44:39.629Z,59.00
2018-10-12T09:47:14.447Z,59.10
2018-10-12T09:49:48.700Z,60.10
2018-10-12T09:52:23.312Z,60.50
2018-10-12T09:54:57.774Z,60.30
2018-10-12T09:57:35.211Z,60.20
2018-10-12T10:00:14.950Z,60.30
2018-10-12T10:02:54.841Z,60.40
2018-10-12T10:05:29.156Z,61.10
2018-10-12T10:08:04.212Z,61.20
2018-10-12T10:10:38.644Z,60.60
2018-10-12T10:13:13.748Z,61.10
2018-10-12T10:15:48.781Z,61.30
2018-10-12T10:18:23.159Z,61.70
2018-10-12T10:20:58.308Z,61.20
2018-10-12T10:23:32.914Z,60.80
2018-10-12T10:26:07.643Z,60.80
2018-10-12T10:35:52.147Z,60.70
2018-10-12T10:38:27.066Z,62.10
2018-10-12T10:41:02.101Z,62.00
2018-10-12T10:43:37.086Z,61.90
2018-10-12T10:46:11.463Z,61.10
2018-10-12T10:48:46.071Z,60.70
2018-10-12T10:51:20.473Z,60.30
2018-10-12T10:53:55.499Z,60.00
2018-10-12T10:56:30.956Z,60.00
2018-10-12T10:59:05.442Z,59.70
2018-10-12T11:01:40.876Z,59.30
2018-10-12T11:04:15.423Z,59.40
2018-10-12T11:06:49.758Z,59.00
2018-10-12T11:09:25.502Z,58.80
2018-10-12T11:12:03.822Z,58.10
2018-10-12T11:14:38.813Z,57.50
2018-10-12T11:17:13.255Z,57.30
2018-10-12T11:19:47.678Z,56.80
2018-10-12T11:22:22.639Z,56.70
2018-10-12T11:24:57.407Z,55.50
2018-10-12T11:27:31.766Z,58.60
2018-10-12T11:30:07.088Z,65.00
2018-10-12T11:32:42.227Z,57.60
2018-10-12T11:35:17.401Z,59.80
2018-10-12T11:37:54.575Z,58.60
2018-10-12T11:40:30.032Z,55.40
2018-10-12T11:43:16.632Z,55.80
2018-10-12T11:45:50.940Z,62.30
2018-10-12T11:48:25.467Z,56.00
2018-10-12T11:51:00.323Z,52.90
2018-10-12T11:53:34.731Z,52.60
2018-10-12T11:56:09.808Z,53.50
2018-10-12T11:58:44.283Z,53.30
2018-10-12T12:01:18.756Z,51.30
2018-10-12T12:03:53.540Z,54.40
2018-10-12T12:06:28.145Z,53.20
2018-10-12T12:09:02.504Z,51.70
2018-10-12T12:11:37.005Z,50.20
2018-10-12T12:14:12.244Z,53.50
2018-10-12T12:16:47.685Z,54.80
2018-10-12T12:19:22.944Z,52.00
2018-10-12T12:21:58.376Z,52.30
2018-10-12T12:24:32.733Z,51.40
2018-10-12T12:27:07.173Z,50.80
2018-10-12T12:29:42.474Z,57.10
2018-10-12T12:32:17.432Z,51.60
2018-10-12T12:34:52.595Z,52.70
2018-10-12T12:37:26.888Z,57.20
2018-10-12T12:40:01.704Z,52.50
2018-10-12T12:42:36.052Z,51.10
2018-10-12T12:45:10.971Z,51.60
2018-10-12T12:47:45.645Z,53.00
2018-10-12T12:50:20.632Z,51.50
2018-10-12T12:52:55.139Z,52.00
2018-10-12T12:58:10.341Z,53.50
2018-10-12T13:00:52.120Z,54.00
2018-10-12T13:03:27.213Z,54.60
2018-10-12T13:06:02.236Z,54.10
2018-10-12T13:08:37.347Z,52.80
2018-10-12T13:11:17.134Z,57.10
2018-10-12T13:13:52.448Z,56.00
2018-10-12T13:16:26.968Z,56.80
2018-10-12T13:19:01.370Z,56.40
2018-10-12T13:21:36.434Z,55.50
2018-10-12T13:24:11.531Z,55.90
2018-10-12T13:26:46.365Z,56.80
2018-10-12T13:29:21.300Z,56.30
2018-10-12T13:31:56.517Z,50.70
2018-10-12T13:34:31.768Z,50.50
2018-10-12T13:37:06.196Z,50.90
2018-10-12T13:39:41.251Z,51.30
2018-10-12T13:42:15.556Z,50.80
2018-10-12T13:44:50.541Z,52.00
2018-10-12T13:47:25.120Z,50.80
2018-10-12T13:50:00.209Z,52.00
2018-10-12T13:52:35.265Z,51.50
2018-10-12T13:55:09.753Z,53.30
2018-10-12T13:57:44.773Z,50.40
2018-10-12T14:00:19.198Z,50.60
2018-10-12T14:02:54.289Z,50.50
2018-10-12T14:05:28.626Z,53.00
2018-10-12T14:08:02.936Z,52.50
2018-10-12T14:10:37.471Z,54.40
2018-10-12T14:13:12.371Z,51.80
2018-10-12T14:15:48.387Z,51.60
2018-10-12T14:18:23.148Z,51.50
2018-10-12T14:20:58.803Z,53.20
2018-10-12T14:23:34.288Z,53.40
2018-10-12T14:26:16.701Z,51.40
2018-10-12T14:28:52.143Z,50.80
2018-10-12T14:31:27.246Z,51.00
2018-10-12T14:34:02.189Z,50.60
2018-10-12T14:36:37.650Z,51.20
2018-10-12T14:39:12.635Z,53.20
2018-10-12T14:41:47.071Z,52.80
2018-10-12T14:44:22.939Z,53.30
2018-10-12T14:46:58.764Z,51.10
2018-10-12T14:49:33.793Z,50.90
2018-10-12T14:52:08.268Z,51.00
2018-10-12T14:54:42.641Z,51.30
2018-10-12T14:57:19.728Z,50.70
2018-10-12T14:59:54.272Z,50.20
2018-10-12T15:02:29.268Z,49.60
2018-10-12T15:05:03.680Z,52.70
2018-10-12T15:07:38.846Z,53.60
2018-10-12T15:10:13.212Z,53.60
2018-10-12T15:12:48.083Z,52.30
2018-10-12T15:15:28.534Z,50.60
2018-10-12T15:18:03.120Z,49.10
2018-10-12T15:23:08.813Z,48.90
2018-10-12T15:25:44.019Z,48.80
2018-10-12T15:28:21.038Z,50.20
2018-10-12T15:30:56.016Z,50.50
2018-10-12T15:33:30.879Z,49.60
2018-10-12T15:36:05.856Z,49.50
2018-10-12T15:38:41.244Z,48.90
2018-10-12T15:41:15.516Z,48.80
2018-10-12T15:43:50.456Z,47.70
2018-10-12T15:46:24.947Z,48.70
2018-10-12T15:49:00.016Z,48.40
2018-10-12T15:51:34.561Z,48.30
2018-10-12T15:54:08.937Z,48.50
2018-10-12T15:56:44.371Z,48.00
2018-10-12T15:59:20.058Z,47.60
2018-10-12T16:01:55.093Z,47.20
2018-10-12T16:04:29.492Z,47.10
2018-10-12T16:07:04.449Z,47.50
2018-10-12T16:09:38.885Z,48.00
2018-10-12T16:12:13.962Z,48.70
2018-10-12T16:14:48.936Z,49.30
2018-10-12T16:17:23.174Z,49.60
2018-10-12T16:19:57.745Z,50.40
2018-10-12T16:23:57.571Z,51.40
2018-10-12T16:26:32.394Z,51.80
2018-10-12T16:29:07.542Z,53.00
2018-10-12T16:31:42.778Z,54.10
2018-10-12T16:34:18.019Z,54.30
2018-10-12T16:36:52.604Z,54.00
2018-10-12T16:39:27.908Z,54.20
2018-10-12T16:42:03.314Z,54.50
2018-10-12T16:44:38.593Z,54.70
2018-10-12T16:47:14.208Z,55.00
2018-10-12T16:49:49.450Z,55.20
2018-10-12T16:52:24.054Z,55.70
2018-10-12T16:56:25.585Z,56.10
2018-10-12T16:59:00.626Z,56.30
2018-10-12T17:01:36.956Z,57.40
2018-10-12T17:04:12.100Z,58.00
2018-10-12T17:06:48.556Z,58.60
2018-10-12T17:09:23.472Z,59.00
2018-10-12T17:11:59.040Z,59.60
2018-10-12T17:14:34.844Z,60.00
2018-10-12T17:17:10.382Z,60.40
2018-10-12T17:19:45.242Z,60.80
2018-10-12T17:22:20.756Z,61.30
2018-10-12T17:24:56.283Z,61.60
2018-10-12T17:27:30.886Z,61.80
2018-10-12T17:30:06.151Z,61.90
2018-10-12T17:32:41.308Z,62.10
2018-10-12T17:35:17.061Z,62.40
2018-10-12T17:37:54.533Z,62.50
2018-10-12T17:40:29.453Z,62.80
2018-10-12T17:43:08.944Z,63.30
2018-10-12T17:45:43.184Z,63.70
2018-10-12T17:48:18.575Z,63.90
2018-10-12T17:50:53.603Z,64.20
2018-10-12T17:53:27.964Z,64.80
2018-10-12T17:56:03.000Z,65.40
2018-10-12T17:58:37.484Z,66.50
2018-10-12T18:08:17.331Z,66.40
2018-10-12T18:10:51.983Z,68.10
2018-10-12T18:13:27.052Z,68.30
2018-10-12T18:16:02.064Z,68.50
2018-10-12T18:18:37.931Z,68.60
2018-10-12T18:21:13.276Z,68.80
2018-10-12T18:23:48.921Z,68.90
2018-10-12T18:26:24.051Z,69.10
2018-10-12T18:28:59.628Z,69.10
2018-10-12T18:31:35.392Z,68.90
2018-10-12T18:34:10.626Z,68.70
2018-10-12T18:36:46.148Z,68.50
2018-10-12T18:39:21.148Z,68.40
2018-10-12T18:41:55.495Z,69.30
2018-10-12T18:44:30.771Z,69.20
2018-10-12T18:47:05.804Z,69.10
2018-10-12T18:49:41.242Z,68.80
2018-10-12T18:52:15.678Z,68.80
2018-10-12T18:54:50.946Z,68.80
2018-10-12T18:57:26.365Z,69.00
2018-10-12T19:00:02.497Z,69.10
2018-10-12T19:02:36.874Z,69.70
2018-10-12T19:05:11.285Z,69.10
2018-10-12T19:07:46.135Z,69.10
2018-10-12T19:10:20.604Z,69.20
2018-10-12T19:12:55.104Z,69.30
2018-10-12T19:15:30.180Z,69.50
2018-10-12T19:18:04.541Z,69.80
2018-10-12T19:20:39.703Z,69.80
2018-10-12T19:23:14.780Z,69.70
2018-10-12T19:25:49.145Z,69.70
2018-10-12T19:28:28.704Z,69.70
2018-10-12T19:31:05.289Z,69.90
2018-10-12T19:33:40.349Z,70.00
2018-10-12T19:36:15.656Z,69.90
2018-10-12T19:38:50.913Z,70.00
2018-10-12T19:41:25.436Z,70.00
2018-10-12T19:44:00.484Z,70.00
2018-10-12T19:46:35.547Z,70.30
2018-10-12T19:49:10.746Z,70.30
2018-10-12T19:51:45.227Z,70.70
2018-10-12T19:54:19.722Z,70.90
2018-10-12T19:56:54.653Z,71.10
2018-10-12T19:59:29.021Z,71.30
2018-10-12T20:02:03.505Z,71.40
2018-10-12T20:04:39.213Z,71.80
2018-10-12T20:07:14.433Z,71.70
2018-10-12T20:09:48.793Z,71.70
2018-10-12T20:12:25.493Z,71.70
2018-10-12T20:15:01.089Z,71.80
2018-10-12T20:17:35.736Z,72.00
2018-10-12T20:20:10.160Z,72.00
2018-10-12T20:25:26.041Z,72.10
2018-10-12T20:28:01.280Z,72.30
2018-10-12T20:30:37.141Z,72.40
2018-10-12T20:33:12.322Z,72.40
2018-10-12T20:35:47.409Z,72.60
2018-10-12T20:38:22.581Z,72.80
2018-10-12T20:40:57.029Z,73.10
2018-10-12T20:43:32.540Z,73.50
2018-10-12T20:46:07.688Z,73.60
2018-10-12T20:48:42.799Z,73.90
2018-10-12T20:51:17.435Z,74.00
2018-10-12T20:53:51.746Z,74.30
